Time;durP1;ratioP1;P1;durP2;ratioP2;P2;SDS_P1;SDS_P2;PMS_P1;PMS_P2;Temp;Humidity;BMP_temperature;BMP_pressure;BME280_temperature;BME280_humidity;BME280_pressure;Samples;Min_cycle;Max_cycle;Signal;HPM_P1;HPM_P2
2022/05/19 00:01:01;;;;;;;;;;;;;;;;;;5105755;28;19959;-67
2022/05/19 00:03:24;;;;;;;;;;;;;;;;;;5106839;28;19942;-67
2022/05/19 00:05:50;;;;;;;;;;;;;;;;;;5107366;28;19920;-68
2022/05/19 00:08:16;;;;;;;;;;;;;;;;;;5107251;28;19942;-67
2022/05/19 00:10:42;;;;;;;;;;;;;;;;;;5107032;28;20015;-68
2022/05/19 00:13:08;;;;;;;;;;;;;;;;;;5107014;28;19923;-68
2022/05/19 00:15:34;;;;;;;;;;;;;;;;;;5107056;28;19959;-67
2022/05/19 00:18:00;;;;;;;;;;;;;;;;;;5107002;28;19975;-67
2022/05/19 00:20:26;;;;;;;;;;;;;;;;;;5088848;28;20050;-67
2022/05/19 00:22:52;;;;;;;;;;;;;;;;;;5106967;28;20015;-67
2022/05/19 00:25:19;;;;;;;;;;;;;;;;;;5106788;28;19920;-67
2022/05/19 00:27:45;;;;;;;;;;;;;;;;;;5106599;28;19920;-67
2022/05/19 00:30:11;;;;;;;;;;;;;;;;;;5106632;28;20010;-67
2022/05/19 00:32:37;;;;;;;;;;;;;;;;;;5106465;28;20010;-67
2022/05/19 00:35:03;;;;;;;;;;;;;;;;;;5106591;28;20430;-68
2022/05/19 00:37:29;;;;;;;;;;;;;;;;;;5106592;28;19959;-68
2022/05/19 00:39:54;;;;;;;;;;;;;;;;;;5106624;28;19920;-68
2022/05/19 00:45:06;;;;;;;;;;;;;;;;;;5106289;28;19926;-67
2022/05/19 00:47:32;;;;;;;;;;;;;;;;;;5106437;28;19923;-67
2022/05/19 00:49:58;;;;;;;;;;;;;;;;;;5088104;28;20424;-68
2022/05/19 00:52:24;;;;;;;;;;;;;;;;;;5106324;28;19941;-67
2022/05/19 00:54:50;;;;;;;;;;;;;;;;;;5106371;28;19920;-68
2022/05/19 00:57:15;;;;;;;;;;;;;;;;;;5106366;28;19920;-68
2022/05/19 00:59:41;;;;;;;;;;;;;;;;;;5105993;28;19920;-68
2022/05/19 01:02:07;;;;;;;;;;;;;;;;;;5106125;28;19928;-67
2022/05/19 01:04:33;;;;;;;;;;;;;;;;;;5087875;28;19976;-68
2022/05/19 01:06:59;;;;;;;;;;;;;;;;;;5106122;28;19983;-68
2022/05/19 01:09:25;;;;;;;;;;;;;;;;;;5104959;28;19959;-68
2022/05/19 01:11:55;;;;;;;;;;;;;;;;;;5067684;28;19924;-68
2022/05/19 01:14:21;;;;;;;;;;;;;;;;;;5085548;28;19931;-69
2022/05/19 01:16:47;;;;;;;;;;;;;;;;;;5085604;28;19924;-67
2022/05/19 01:19:13;;;;;;;;;;;;;;;;;;5085528;28;20167;-69
2022/05/19 01:21:39;;;;;;;;;;;;;;;;;;5085538;28;19927;-68
2022/05/19 01:24:05;;;;;;;;;;;;;;;;;;5085602;28;19920;-68
2022/05/19 01:26:31;;;;;;;;;;;;;;;;;;5085543;28;19970;-68
2022/05/19 01:28:57;;;;;;;;;;;;;;;;;;5085126;28;20018;-68
2022/05/19 01:31:23;;;;;;;;;;;;;;;;;;5085499;28;19920;-67
2022/05/19 01:33:49;;;;;;;;;;;;;;;;;;5067133;28;19920;-67
2022/05/19 01:36:15;;;;;;;;;;;;;;;;;;5067440;28;20310;-67
2022/05/19 01:38:41;;;;;;;;;;;;;;;;;;5067272;28;19920;-67
2022/05/19 01:41:07;;;;;;;;;;;;;;;;;;5067254;28;19959;-67
2022/05/19 01:43:33;;;;;;;;;;;;;;;;;;5085244;28;19920;-67
2022/05/19 01:45:59;;;;;;;;;;;;;;;;;;5085067;28;19947;-67
2022/05/19 01:48:25;;;;;;;;;;;;;;;;;;5085247;28;19938;-67
2022/05/19 01:50:51;;;;;;;;;;;;;;;;;;5067087;28;19927;-67
2022/05/19 01:53:17;;;;;;;;;;;;;;;;;;5067026;28;19931;-67
2022/05/19 01:55:43;;;;;;;;;;;;;;;;;;5084853;28;19920;-67
2022/05/19 01:58:09;;;;;;;;;;;;;;;;;;5085004;28;19981;-66
2022/05/19 02:00:35;;;;;;;;;;;;;;;;;;5084809;28;19927;-67
2022/05/19 02:03:01;;;;;;;;;;;;;;;;;;5085498;28;19927;-68
2022/05/19 02:05:27;;;;;;;;;;;;;;;;;;5091632;28;19928;-67
2022/05/19 02:07:53;;;;;;;;;;;;;;;;;;5073607;28;19951;-68
2022/05/19 02:10:19;;;;;;;;;;;;;;;;;;5091752;28;19992;-67
2022/05/19 02:12:45;;;;;;;;;;;;;;;;;;5091733;28;19986;-67
2022/05/19 02:15:11;;;;;;;;;;;;;;;;;;5107151;28;19920;-67
2022/05/19 02:17:37;;;;;;;;;;;;;;;;;;5091529;28;20110;-67
2022/05/19 02:20:03;;;;;;;;;;;;;;;;;;5091431;28;19920;-67
2022/05/19 02:22:29;;;;;;;;;;;;;;;;;;5091620;28;20361;-67
2022/05/19 02:24:55;;;;;;;;;;;;;;;;;;5091458;28;19949;-67
2022/05/19 02:27:21;;;;;;;;;;;;;;;;;;5091538;28;19921;-67
2022/05/19 02:29:47;;;;;;;;;;;;;;;;;;5091314;28;20060;-68
2022/05/19 02:32:13;;;;;;;;;;;;;;;;;;5091545;28;19923;-68
2022/05/19 02:34:38;;;;;;;;;;;;;;;;;;5091354;28;19927;-67
2022/05/19 02:37:04;;;;;;;;;;;;;;;;;;5091330;28;20007;-67
2022/05/19 02:39:30;;;;;;;;;;;;;;;;;;5091379;28;19954;-67
2022/05/19 02:41:57;;;;;;;;;;;;;;;;;;5091310;28;19927;-68
2022/05/19 02:44:23;;;;;;;;;;;;;;;;;;5091250;28;19921;-67
2022/05/19 02:46:49;;;;;;;;;;;;;;;;;;5091464;28;19954;-67
2022/05/19 02:49:15;;;;;;;;;;;;;;;;;;5091373;28;19927;-68
2022/05/19 02:51:40;;;;;;;;;;;;;;;;;;5073332;28;20466;-68
2022/05/19 02:54:06;;;;;;;;;;;;;;;;;;5091189;28;19967;-68
2022/05/19 02:56:32;;;;;;;;;;;;;;;;;;5091261;28;19924;-68
2022/05/19 02:58:58;;;;;;;;;;;;;;;;;;5090928;28;19920;-68
2022/05/19 03:01:25;;;;;;;;;;;;;;;;;;5091384;28;19955;-68
2022/05/19 03:03:51;;;;;;;;;;;;;;;;;;5090948;28;19935;-68
2022/05/19 03:06:19;;;;;;;;;;;;;;;;;;5091391;28;19924;-68
2022/05/19 03:08:45;;;;;;;;;;;;;;;;;;5091020;28;19924;-68
2022/05/19 03:11:11;;;;;;;;;;;;;;;;;;5073133;28;19920;-67
2022/05/19 03:13:37;;;;;;;;;;;;;;;;;;5091114;28;19924;-67
2022/05/19 03:16:03;;;;;;;;;;;;;;;;;;5087300;28;20284;-67
2022/05/19 03:18:29;;;;;;;;;;;;;;;;;;5087768;28;19967;-67
2022/05/19 03:20:55;;;;;;;;;;;;;;;;;;5087952;28;20287;-67
2022/05/19 03:23:21;;;;;;;;;;;;;;;;;;5087745;28;20386;-67
2022/05/19 03:25:47;;;;;;;;;;;;;;;;;;5087808;28;20514;-67
2022/05/19 03:28:13;;;;;;;;;;;;;;;;;;5069478;28;20170;-67
2022/05/19 03:30:39;;;;;;;;;;;;;;;;;;5087635;28;19921;-67
2022/05/19 03:33:05;;;;;;;;;;;;;;;;;;5087341;28;19927;-67
2022/05/19 03:35:31;;;;;;;;;;;;;;;;;;5087459;28;20430;-68
2022/05/19 03:37:57;;;;;;;;;;;;;;;;;;5087334;28;19991;-67
2022/05/19 03:40:23;;;;;;;;;;;;;;;;;;5087449;28;19962;-67
2022/05/19 03:42:49;;;;;;;;;;;;;;;;;;5087423;28;19943;-67
2022/05/19 03:45:15;;;;;;;;;;;;;;;;;;5087422;28;19920;-67
2022/05/19 03:47:41;;;;;;;;;;;;;;;;;;5087341;28;19931;-67
2022/05/19 03:50:07;;;;;;;;;;;;;;;;;;5087107;28;19978;-67
2022/05/19 03:52:33;;;;;;;;;;;;;;;;;;5087132;28;19920;-67
2022/05/19 03:55:00;;;;;;;;;;;;;;;;;;5087314;28;20089;-67
2022/05/19 03:57:26;;;;;;;;;;;;;;;;;;5087138;28;19964;-67
2022/05/19 03:59:52;;;;;;;;;;;;;;;;;;5086919;28;19920;-67
2022/05/19 04:02:18;;;;;;;;;;;;;;;;;;5087118;28;19920;-67
2022/05/19 04:04:44;;;;;;;;;;;;;;;;;;5086863;28;19920;-67
2022/05/19 04:07:10;;;;;;;;;;;;;;;;;;5086975;28;19920;-68
2022/05/19 04:09:36;;;;;;;;;;;;;;;;;;5087104;28;19921;-67
2022/05/19 04:12:02;;;;;;;;;;;;;;;;;;5068869;28;19960;-67
2022/05/19 04:14:28;;;;;;;;;;;;;;;;;;5086500;28;19942;-67
2022/05/19 04:16:54;;;;;;;;;;;;;;;;;;5086787;28;19920;-67
2022/05/19 04:19:20;;;;;;;;;;;;;;;;;;5086815;28;19966;-67
2022/05/19 04:21:46;;;;;;;;;;;;;;;;;;5086605;28;19920;-67
2022/05/19 04:24:12;;;;;;;;;;;;;;;;;;5086604;28;19927;-66
2022/05/19 04:26:38;;;;;;;;;;;;;;;;;;5086368;28;19920;-67
2022/05/19 04:29:04;;;;;;;;;;;;;;;;;;5086450;28;19932;-67
2022/05/19 04:31:31;;;;;;;;;;;;;;;;;;5086542;28;19927;-67
2022/05/19 04:33:57;;;;;;;;;;;;;;;;;;5068168;28;19987;-67
2022/05/19 04:36:23;;;;;;;;;;;;;;;;;;5086194;28;19921;-67
2022/05/19 04:38:49;;;;;;;;;;;;;;;;;;5068396;28;19927;-67
2022/05/19 04:41:15;;;;;;;;;;;;;;;;;;5086425;28;19920;-67
2022/05/19 04:43:41;;;;;;;;;;;;;;;;;;5086125;28;20330;-67
2022/05/19 04:46:07;;;;;;;;;;;;;;;;;;5086064;28;19925;-68
2022/05/19 04:48:33;;;;;;;;;;;;;;;;;;5086196;28;19920;-67
2022/05/19 04:50:59;;;;;;;;;;;;;;;;;;5085938;28;19921;-68
2022/05/19 04:53:25;;;;;;;;;;;;;;;;;;5086187;28;19928;-67
2022/05/19 04:55:51;;;;;;;;;;;;;;;;;;5086040;28;19974;-67
2022/05/19 04:58:17;;;;;;;;;;;;;;;;;;5085807;28;19924;-67
2022/05/19 05:00:43;;;;;;;;;;;;;;;;;;5085694;28;19927;-67
2022/05/19 05:03:09;;;;;;;;;;;;;;;;;;5067598;28;19921;-67
2022/05/19 05:05:35;;;;;;;;;;;;;;;;;;5068483;28;19923;-67
2022/05/19 05:08:01;;;;;;;;;;;;;;;;;;5105595;28;19969;-67
2022/05/19 05:10:27;;;;;;;;;;;;;;;;;;5125031;28;19955;-67
2022/05/19 05:12:53;;;;;;;;;;;;;;;;;;5107788;28;19919;-67
2022/05/19 05:15:19;;;;;;;;;;;;;;;;;;5124118;28;19923;-67
2022/05/19 05:17:45;;;;;;;;;;;;;;;;;;5104649;28;20443;-68
2022/05/19 05:20:12;;;;;;;;;;;;;;;;;;5084078;28;19920;-67
2022/05/19 05:22:38;;;;;;;;;;;;;;;;;;5100673;28;20397;-67
2022/05/19 05:25:04;;;;;;;;;;;;;;;;;;5101109;28;19966;-67
2022/05/19 05:27:30;;;;;;;;;;;;;;;;;;5101811;28;19981;-68
2022/05/19 05:29:56;;;;;;;;;;;;;;;;;;5101624;28;19951;-68
2022/05/19 05:32:22;;;;;;;;;;;;;;;;;;5101730;28;19975;-68
2022/05/19 05:34:48;;;;;;;;;;;;;;;;;;5101198;28;19920;-67
2022/05/19 05:37:14;;;;;;;;;;;;;;;;;;5103694;28;20379;-67
2022/05/19 05:39:40;;;;;;;;;;;;;;;;;;5103745;28;19927;-68
2022/05/19 05:42:06;;;;;;;;;;;;;;;;;;5103781;28;19924;-67
2022/05/19 05:44:32;;;;;;;;;;;;;;;;;;5102336;28;19931;-67
2022/05/19 05:46:58;;;;;;;;;;;;;;;;;;5104083;28;19927;-67
2022/05/19 05:49:24;;;;;;;;;;;;;;;;;;5108705;28;19920;-68
2022/05/19 05:51:50;;;;;;;;;;;;;;;;;;5102881;28;19931;-67
2022/05/19 05:54:16;;;;;;;;;;;;;;;;;;5107116;28;20406;-68
2022/05/19 05:56:42;;;;;;;;;;;;;;;;;;5098273;28;19920;-67
2022/05/19 05:59:08;;;;;;;;;;;;;;;;;;5105142;28;19920;-67
2022/05/19 06:01:34;;;;;;;;;;;;;;;;;;5102425;28;19919;-67
2022/05/19 06:04:02;;;;;;;;;;;;;;;;;;5098673;28;19919;-67
2022/05/19 06:06:28;;;;;;;;;;;;;;;;;;5100532;28;19991;-67
2022/05/19 06:08:54;;;;;;;;;;;;;;;;;;5101395;28;19935;-67
2022/05/19 06:11:20;;;;;;;;;;;;;;;;;;5098353;28;19920;-68
2022/05/19 06:13:47;;;;;;;;;;;;;;;;;;5104348;28;19920;-68
2022/05/19 06:16:13;;;;;;;;;;;;;;;;;;5104964;28;19920;-68
2022/05/19 06:18:39;;;;;;;;;;;;;;;;;;5105047;28;19920;-67
2022/05/19 06:21:05;;;;;;;;;;;;;;;;;;5105032;28;19919;-67
2022/05/19 06:23:32;;;;;;;;;;;;;;;;;;5105111;28;20349;-68
2022/05/19 06:25:58;;;;;;;;;;;;;;;;;;5104922;28;19920;-68
2022/05/19 06:28:24;;;;;;;;;;;;;;;;;;5105094;28;19970;-68
2022/05/19 06:30:50;;;;;;;;;;;;;;;;;;5104859;28;20002;-68
2022/05/19 06:33:18;;;;;;;;;;;;;;;;;;5086761;28;20395;-67
2022/05/19 06:35:44;;;;;;;;;;;;;;;;;;5104988;28;20363;-68
2022/05/19 06:38:10;;;;;;;;;;;;;;;;;;5104839;28;19920;-68
2022/05/19 06:40:36;;;;;;;;;;;;;;;;;;5104796;28;19943;-68
2022/05/19 06:43:03;;;;;;;;;;;;;;;;;;5104913;28;19920;-68
2022/05/19 06:45:30;;;;;;;;;;;;;;;;;;5104785;28;20346;-67
2022/05/19 06:47:57;;;;;;;;;;;;;;;;;;5086670;28;20006;-68
2022/05/19 06:50:23;;;;;;;;;;;;;;;;;;5106686;28;19993;-68
2022/05/19 06:52:49;;;;;;;;;;;;;;;;;;5108759;28;20395;-69
2022/05/19 06:55:15;;;;;;;;;;;;;;;;;;5108505;28;19920;-68
2022/05/19 06:57:41;;;;;;;;;;;;;;;;;;5108691;28;19920;-68
2022/05/19 07:00:07;;;;;;;;;;;;;;;;;;5108480;28;19935;-68
2022/05/19 07:02:33;;;;;;;;;;;;;;;;;;5108549;28;20321;-68
2022/05/19 07:04:59;;;;;;;;;;;;;;;;;;5108380;28;19920;-67
2022/05/19 07:07:25;;;;;;;;;;;;;;;;;;5108666;28;19931;-69
2022/05/19 07:09:51;;;;;;;;;;;;;;;;;;5108533;28;19962;-66
2022/05/19 07:12:17;;;;;;;;;;;;;;;;;;5108372;28;19930;-66
2022/05/19 07:14:43;;;;;;;;;;;;;;;;;;5108344;28;19960;-67
2022/05/19 07:17:09;;;;;;;;;;;;;;;;;;5108167;28;19927;-66
2022/05/19 07:22:21;;;;;;;;;;;;;;;;;;5107996;28;19974;-66
2022/05/19 07:24:48;;;;;;;;;;;;;;;;;;5108299;28;19971;-67
2022/05/19 07:27:14;;;;;;;;;;;;;;;;;;5108100;28;19979;-66
2022/05/19 07:29:40;;;;;;;;;;;;;;;;;;5107973;28;19928;-67
2022/05/19 07:32:07;;;;;;;;;;;;;;;;;;5108098;28;19986;-67
2022/05/19 07:34:33;;;;;;;;;;;;;;;;;;5106559;28;20367;-66
2022/05/19 07:36:59;;;;;;;;;;;;;;;;;;5089667;28;20345;-67
2022/05/19 07:39:25;;;;;;;;;;;;;;;;;;5107874;28;19943;-67
2022/05/19 07:41:53;;;;;;;;;;;;;;;;;;5107660;28;20367;-67
2022/05/19 07:44:19;;;;;;;;;;;;;;;;;;5107535;28;19928;-67
2022/05/19 07:46:45;;;;;;;;;;;;;;;;;;5107596;28;19924;-67
2022/05/19 07:49:11;;;;;;;;;;;;;;;;;;5107731;28;19926;-68
2022/05/19 07:51:39;;;;;;;;;;;;;;;;;;5107581;28;19924;-68
2022/05/19 07:54:05;;;;;;;;;;;;;;;;;;5107348;28;19920;-67
2022/05/19 07:56:31;;;;;;;;;;;;;;;;;;5107468;28;19924;-67
2022/05/19 07:58:57;;;;;;;;;;;;;;;;;;5107155;28;19928;-68
2022/05/19 08:01:25;;;;;;;;;;;;;;;;;;5106587;28;19980;-67
2022/05/19 08:03:51;;;;;;;;;;;;;;;;;;5107281;28;19928;-68
2022/05/19 08:06:17;;;;;;;;;;;;;;;;;;5088917;28;19981;-67
2022/05/19 08:08:43;;;;;;;;;;;;;;;;;;5107408;28;19920;-67
2022/05/19 08:11:09;;;;;;;;;;;;;;;;;;5107007;28;19924;-67
2022/05/19 08:16:21;;;;;;;;;;;;;;;;;;5107048;28;19974;-68
2022/05/19 08:18:47;;;;;;;;;;;;;;;;;;5106841;28;20048;-68
2022/05/19 08:21:13;;;;;;;;;;;;;;;;;;5107107;28;20003;-67
2022/05/19 08:23:39;;;;;;;;;;;;;;;;;;5088829;28;19920;-67
2022/05/19 08:26:05;;;;;;;;;;;;;;;;;;5088629;28;19924;-67
2022/05/19 08:28:31;;;;;;;;;;;;;;;;;;5106783;28;19942;-68
2022/05/19 08:30:57;;;;;;;;;;;;;;;;;;5106692;28;20075;-67
2022/05/19 08:33:23;;;;;;;;;;;;;;;;;;5106687;28;19927;-68
2022/05/19 08:35:49;;;;;;;;;;;;;;;;;;5088562;28;19924;-67
2022/05/19 08:38:15;;;;;;;;;;;;;;;;;;5106734;28;20005;-67
2022/05/19 08:40:41;;;;;;;;;;;;;;;;;;5106705;28;19920;-66
2022/05/19 08:43:07;;;;;;;;;;;;;;;;;;5106504;28;19947;-68
2022/05/19 08:45:33;;;;;;;;;;;;;;;;;;5106304;28;19924;-67
2022/05/19 08:47:59;;;;;;;;;;;;;;;;;;5106523;28;19927;-68
2022/05/19 08:50:25;;;;;;;;;;;;;;;;;;5106339;28;19927;-68
2022/05/19 08:52:51;;;;;;;;;;;;;;;;;;5106361;28;19920;-68
2022/05/19 08:55:17;;;;;;;;;;;;;;;;;;5106259;28;20398;-68
2022/05/19 08:57:43;;;;;;;;;;;;;;;;;;5106091;28;19927;-68
2022/05/19 09:00:10;;;;;;;;;;;;;;;;;;5105991;28;19920;-67
2022/05/19 09:02:37;;;;;;;;;;;;;;;;;;5106153;28;19923;-68
2022/05/19 09:05:03;;;;;;;;;;;;;;;;;;5106205;28;19924;-68
2022/05/19 09:10:14;;;;;;;;;;;;;;;;;;5106072;28;19926;-68
2022/05/19 09:12:40;;;;;;;;;;;;;;;;;;5105493;28;19920;-67
2022/05/19 09:15:06;;;;;;;;;;;;;;;;;;5105422;28;19967;-67
2022/05/19 09:17:32;;;;;;;;;;;;;;;;;;5105698;28;20010;-67
2022/05/19 09:19:58;;;;;;;;;;;;;;;;;;5106137;28;19931;-67
2022/05/19 09:22:24;;;;;;;;;;;;;;;;;;5105969;28;19975;-67
2022/05/19 09:24:50;;;;;;;;;;;;;;;;;;5105882;28;20299;-67
2022/05/19 09:27:18;;;;;;;;;;;;;;;;;;5105697;28;20019;-67
2022/05/19 09:29:44;;;;;;;;;;;;;;;;;;5105676;28;19920;-67
2022/05/19 09:32:10;;;;;;;;;;;;;;;;;;5105731;28;19959;-68
2022/05/19 09:34:36;;;;;;;;;;;;;;;;;;5104216;28;19916;-68
2022/05/19 09:37:02;;;;;;;;;;;;;;;;;;5105654;28;19920;-67
2022/05/19 09:39:33;;;;;;;;;;;;;;;;;;5105535;28;19920;-67
2022/05/19 09:41:59;;;;;;;;;;;;;;;;;;5105707;28;19934;-68
2022/05/19 09:44:25;;;;;;;;;;;;;;;;;;5105692;28;19927;-67
2022/05/19 09:46:51;;;;;;;;;;;;;;;;;;5105488;28;19924;-68
2022/05/19 09:49:17;;;;;;;;;;;;;;;;;;5087311;28;19963;-68
2022/05/19 09:51:43;;;;;;;;;;;;;;;;;;5105417;28;19920;-68
2022/05/19 09:54:15;;;;;;;;;;;;;;;;;;5105223;28;19927;-68
2022/05/19 09:56:41;;;;;;;;;;;;;;;;;;5105673;28;20002;-68
2022/05/19 09:59:07;;;;;;;;;;;;;;;;;;5105320;28;19924;-67
2022/05/19 10:01:33;;;;;;;;;;;;;;;;;;5103804;28;20213;-67
2022/05/19 10:04:01;;;;;;;;;;;;;;;;;;5087102;28;20200;-68
2022/05/19 10:06:27;;;;;;;;;;;;;;;;;;5105384;28;19983;-68
2022/05/19 10:08:53;;;;;;;;;;;;;;;;;;5105181;28;19920;-67
2022/05/19 10:11:21;;;;;;;;;;;;;;;;;;5105413;28;19920;-68
2022/05/19 10:13:47;;;;;;;;;;;;;;;;;;5105248;28;19919;-68
2022/05/19 10:16:13;;;;;;;;;;;;;;;;;;5104966;28;19923;-68
2022/05/19 10:18:39;;;;;;;;;;;;;;;;;;5105082;28;19920;-68
2022/05/19 10:21:05;;;;;;;;;;;;;;;;;;5105158;28;19927;-67
2022/05/19 10:23:31;;;;;;;;;;;;;;;;;;5105025;28;19920;-67
2022/05/19 10:25:57;;;;;;;;;;;;;;;;;;5108197;28;19957;-67
2022/05/19 10:31:08;;;;;;;;;;;;;;;;;;5109017;28;19927;-68
2022/05/19 10:33:34;;;;;;;;;;;;;;;;;;5108931;28;19999;-68
2022/05/19 10:36:00;;;;;;;;;;;;;;;;;;5109276;28;19920;-68
2022/05/19 10:38:27;;;;;;;;;;;;;;;;;;5108921;28;20277;-68
2022/05/19 10:40:53;;;;;;;;;;;;;;;;;;5108936;28;19927;-68
2022/05/19 10:43:19;;;;;;;;;;;;;;;;;;5109056;28;19920;-69
2022/05/19 10:45:45;;;;;;;;;;;;;;;;;;5108724;28;19943;-68
2022/05/19 10:48:12;;;;;;;;;;;;;;;;;;5108656;28;19920;-68
2022/05/19 10:50:38;;;;;;;;;;;;;;;;;;5108641;28;19923;-68
2022/05/19 10:53:04;;;;;;;;;;;;;;;;;;5108853;28;19920;-69
2022/05/19 10:55:31;;;;;;;;;;;;;;;;;;5108853;28;19920;-69
2022/05/19 10:57:57;;;;;;;;;;;;;;;;;;5108520;28;19930;-68
2022/05/19 11:00:23;;;;;;;;;;;;;;;;;;5108199;28;19920;-69
2022/05/19 11:02:49;;;;;;;;;;;;;;;;;;5108451;28;19920;-68
2022/05/19 11:05:15;;;;;;;;;;;;;;;;;;5108443;28;19924;-68
2022/05/19 11:07:41;;;;;;;;;;;;;;;;;;5108587;28;19927;-68
2022/05/19 11:10:07;;;;;;;;;;;;;;;;;;5108435;28;19946;-68
2022/05/19 11:12:33;;;;;;;;;;;;;;;;;;5108401;28;19924;-69
2022/05/19 11:15:01;;;;;;;;;;;;;;;;;;5108334;28;19927;-68
2022/05/19 11:17:28;;;;;;;;;;;;;;;;;;5108257;28;20033;-68
2022/05/19 11:19:54;;;;;;;;;;;;;;;;;;5108230;28;19920;-68
2022/05/19 11:22:20;;;;;;;;;;;;;;;;;;5108152;28;19919;-69
2022/05/19 11:27:31;;;;;;;;;;;;;;;;;;5108089;28;19920;-68
2022/05/19 11:29:57;;;;;;;;;;;;;;;;;;5107992;28;19983;-68
2022/05/19 11:32:23;;;;;;;;;;;;;;;;;;5089707;28;19942;-68
2022/05/19 11:34:49;;;;;;;;;;;;;;;;;;5107769;28;19959;-68
2022/05/19 11:37:15;;;;;;;;;;;;;;;;;;5106827;28;19919;-68
2022/05/19 11:39:41;;;;;;;;;;;;;;;;;;5107923;28;19920;-68
2022/05/19 11:42:07;;;;;;;;;;;;;;;;;;5107901;28;19966;-68
2022/05/19 11:44:33;;;;;;;;;;;;;;;;;;5089433;28;19982;-68
2022/05/19 11:46:59;;;;;;;;;;;;;;;;;;5107577;28;19920;-67
2022/05/19 11:55:16;;;;;;;;;;;;;;;;;;5044627;28;19928;-67
2022/05/19 11:57:42;;;;;;;;;;;;;;;;;;5044643;28;20325;-69
2022/05/19 12:00:08;;;;;;;;;;;;;;;;;;5044309;28;19943;-69
2022/05/19 12:02:34;;;;;;;;;;;;;;;;;;5044492;28;19921;-67
2022/05/19 12:05:00;;;;;;;;;;;;;;;;;;5028053;28;19928;-68
2022/05/19 12:07:26;;;;;;;;;;;;;;;;;;5044721;28;19921;-68
2022/05/19 12:09:53;;;;;;;;;;;;;;;;;;5044600;28;19921;-67
2022/05/19 12:12:19;;;;;;;;;;;;;;;;;;5027797;28;19921;-68
2022/05/19 12:14:45;;;;;;;;;;;;;;;;;;5044353;28;19921;-67
2022/05/19 12:17:11;;;;;;;;;;;;;;;;;;5044395;28;19968;-68
2022/05/19 12:19:37;;;;;;;;;;;;;;;;;;5044389;28;20047;-67
2022/05/19 12:22:04;;;;;;;;;;;;;;;;;;5044413;28;19921;-67
2022/05/19 12:24:30;;;;;;;;;;;;;;;;;;5044307;28;19921;-67
2022/05/19 12:26:57;;;;;;;;;;;;;;;;;;5044121;28;19936;-67
2022/05/19 12:29:23;;;;;;;;;;;;;;;;;;5044113;28;19921;-68
2022/05/19 12:32:03;;;;;;;;;;;;;;;;;;5076638;28;19920;-68
2022/05/19 12:34:31;;;;;;;;;;;;;;;;;;5106656;28;19941;-68
2022/05/19 12:36:57;;;;;;;;;;;;;;;;;;5106744;28;19924;-68
2022/05/19 12:39:23;;;;;;;;;;;;;;;;;;5106431;28;19980;-67
2022/05/19 12:41:49;;;;;;;;;;;;;;;;;;5106791;28;19974;-68
2022/05/19 12:44:15;;;;;;;;;;;;;;;;;;5088393;28;20015;-68
2022/05/19 12:46:41;;;;;;;;;;;;;;;;;;5106390;28;20295;-67
2022/05/19 12:49:07;;;;;;;;;;;;;;;;;;5106158;28;20391;-67
2022/05/19 12:51:33;;;;;;;;;;;;;;;;;;5106581;28;19926;-67
2022/05/19 12:53:59;;;;;;;;;;;;;;;;;;5106598;28;19958;-67
2022/05/19 12:56:25;;;;;;;;;;;;;;;;;;5106353;28;19934;-68
2022/05/19 12:58:52;;;;;;;;;;;;;;;;;;5106259;28;19920;-67
2022/05/19 13:01:18;;;;;;;;;;;;;;;;;;5105947;28;19971;-66
2022/05/19 13:03:44;;;;;;;;;;;;;;;;;;5106121;28;20399;-67
2022/05/19 13:06:10;;;;;;;;;;;;;;;;;;5106108;28;19920;-67
2022/05/19 13:08:37;;;;;;;;;;;;;;;;;;5106053;28;19927;-66
2022/05/19 13:11:06;;;;;;;;;;;;;;;;;;5106249;28;19927;-65
2022/05/19 13:13:32;;;;;;;;;;;;;;;;;;5106075;28;19930;-66
2022/05/19 13:15:58;;;;;;;;;;;;;;;;;;5105948;28;19974;-66
2022/05/19 13:18:24;;;;;;;;;;;;;;;;;;5105880;28;20394;-66
2022/05/19 13:20:50;;;;;;;;;;;;;;;;;;5106214;28;19919;-66
2022/05/19 13:23:16;;;;;;;;;;;;;;;;;;5105822;28;19946;-66
2022/05/19 13:25:42;;;;;;;;;;;;;;;;;;5105988;28;19927;-67
2022/05/19 13:30:53;;;;;;;;;;;;;;;;;;5105698;28;20339;-67
2022/05/19 13:33:19;;;;;;;;;;;;;;;;;;5105590;28;19920;-66
2022/05/19 13:35:45;;;;;;;;;;;;;;;;;;5105602;28;20368;-65
2022/05/19 13:38:11;;;;;;;;;;;;;;;;;;5087444;28;19920;-65
2022/05/19 13:40:38;;;;;;;;;;;;;;;;;;5105770;28;19927;-65
2022/05/19 13:43:04;;;;;;;;;;;;;;;;;;5105673;28;19927;-65
2022/05/19 13:45:30;;;;;;;;;;;;;;;;;;5105498;28;19920;-66
2022/05/19 13:47:56;;;;;;;;;;;;;;;;;;5105524;28;19920;-66
2022/05/19 13:50:22;;;;;;;;;;;;;;;;;;5105399;28;19927;-66
2022/05/19 13:52:50;;;;;;;;;;;;;;;;;;5105534;28;19920;-66
2022/05/19 13:55:16;;;;;;;;;;;;;;;;;;5105327;28;20447;-66
2022/05/19 13:57:41;;;;;;;;;;;;;;;;;;5105438;28;19931;-66
2022/05/19 14:00:07;;;;;;;;;;;;;;;;;;5103073;28;19920;-65
2022/05/19 14:02:36;;;;;;;;;;;;;;;;;;5105171;28;19927;-64
2022/05/19 14:05:02;;;;;;;;;;;;;;;;;;5105250;28;19920;-65
2022/05/19 14:07:28;;;;;;;;;;;;;;;;;;5087244;28;19986;-65
2022/05/19 14:09:54;;;;;;;;;;;;;;;;;;5105369;28;19965;-64
2022/05/19 14:12:20;;;;;;;;;;;;;;;;;;5105102;28;19974;-64
2022/05/19 14:14:46;;;;;;;;;;;;;;;;;;5105261;28;19920;-65
2022/05/19 14:17:12;;;;;;;;;;;;;;;;;;5105252;28;20291;-63
2022/05/19 14:19:39;;;;;;;;;;;;;;;;;;5105032;28;19920;-65
2022/05/19 14:22:05;;;;;;;;;;;;;;;;;;5105198;28;19920;-65
2022/05/19 14:24:31;;;;;;;;;;;;;;;;;;5105195;28;19955;-65
2022/05/19 14:27:00;;;;;;;;;;;;;;;;;;5105100;28;19999;-65
2022/05/19 14:29:26;;;;;;;;;;;;;;;;;;5105040;28;19923;-64
2022/05/19 14:31:54;;;;;;;;;;;;;;;;;;5103853;28;19926;-64
2022/05/19 14:34:21;;;;;;;;;;;;;;;;;;5086698;28;20050;-64
2022/05/19 14:36:47;;;;;;;;;;;;;;;;;;5105060;28;19920;-64
2022/05/19 14:39:12;;;;;;;;;;;;;;;;;;5105191;28;19942;-64
2022/05/19 14:44:23;;;;;;;;;;;;;;;;;;5105011;28;20038;-64
2022/05/19 14:46:49;;;;;;;;;;;;;;;;;;5104865;28;19927;-64
2022/05/19 14:49:15;;;;;;;;;;;;;;;;;;5105108;28;19965;-65
2022/05/19 14:51:41;;;;;;;;;;;;;;;;;;5105000;28;19920;-65
2022/05/19 14:54:07;;;;;;;;;;;;;;;;;;5104864;28;19946;-65
2022/05/19 14:56:33;;;;;;;;;;;;;;;;;;5104986;28;19924;-66
2022/05/19 14:58:59;;;;;;;;;;;;;;;;;;5104708;28;20003;-66
2022/05/19 15:01:25;;;;;;;;;;;;;;;;;;5104611;28;19924;-66
2022/05/19 15:03:52;;;;;;;;;;;;;;;;;;5104757;28;19967;-66
2022/05/19 15:06:18;;;;;;;;;;;;;;;;;;5105012;28;19935;-66
2022/05/19 15:08:44;;;;;;;;;;;;;;;;;;5104754;28;19927;-66
2022/05/19 15:11:10;;;;;;;;;;;;;;;;;;5106337;28;19920;-67
2022/05/19 15:13:36;;;;;;;;;;;;;;;;;;5108530;28;20387;-67
2022/05/19 15:16:02;;;;;;;;;;;;;;;;;;5108235;28;19963;-67
2022/05/19 15:18:28;;;;;;;;;;;;;;;;;;5108263;28;19966;-67
2022/05/19 15:20:54;;;;;;;;;;;;;;;;;;5108348;28;19920;-67
2022/05/19 15:23:20;;;;;;;;;;;;;;;;;;5108219;28;19928;-67
2022/05/19 15:25:46;;;;;;;;;;;;;;;;;;5108377;28;19915;-67
2022/05/19 15:28:12;;;;;;;;;;;;;;;;;;5108009;28;19920;-68
2022/05/19 15:30:38;;;;;;;;;;;;;;;;;;5107976;28;19920;-67
2022/05/19 15:33:04;;;;;;;;;;;;;;;;;;5107936;28;20417;-68
2022/05/19 15:35:30;;;;;;;;;;;;;;;;;;5108184;28;19928;-68
2022/05/19 15:37:56;;;;;;;;;;;;;;;;;;5105036;28;20003;-70
2022/05/19 15:40:23;;;;;;;;;;;;;;;;;;5099066;28;19924;-69
2022/05/19 15:42:49;;;;;;;;;;;;;;;;;;5101083;28;20616;-70
2022/05/19 15:45:15;;;;;;;;;;;;;;;;;;5100003;28;19916;-69
2022/05/19 15:47:41;;;;;;;;;;;;;;;;;;5107951;28;19923;-68
2022/05/19 15:50:07;;;;;;;;;;;;;;;;;;5107703;28;20019;-70
2022/05/19 15:52:33;;;;;;;;;;;;;;;;;;5091910;28;19983;-69
2022/05/19 15:54:59;;;;;;;;;;;;;;;;;;5080610;28;19980;-70
2022/05/19 15:57:25;;;;;;;;;;;;;;;;;;5105614;28;20018;-70
2022/05/19 15:59:50;;;;;;;;;;;;;;;;;;5099559;28;19920;-70
2022/05/19 16:02:16;;;;;;;;;;;;;;;;;;5087176;28;19982;-71
2022/05/19 16:04:43;;;;;;;;;;;;;;;;;;5094584;28;19978;-71
2022/05/19 16:07:10;;;;;;;;;;;;;;;;;;5094906;28;19975;-70
2022/05/19 16:09:36;;;;;;;;;;;;;;;;;;5105005;28;20314;-70
2022/05/19 16:12:02;;;;;;;;;;;;;;;;;;5103479;28;20349;-71
2022/05/19 16:14:28;;;;;;;;;;;;;;;;;;5111424;28;19956;-71
2022/05/19 16:16:54;;;;;;;;;;;;;;;;;;5109387;28;19942;-70
2022/05/19 16:19:20;;;;;;;;;;;;;;;;;;5104961;28;20432;-70
2022/05/19 16:21:46;;;;;;;;;;;;;;;;;;5111267;28;19963;-70
2022/05/19 16:24:12;;;;;;;;;;;;;;;;;;5125963;27;19970;-71
2022/05/19 16:26:38;;;;;;;;;;;;;;;;;;5107901;28;19920;-71
2022/05/19 16:29:04;;;;;;;;;;;;;;;;;;5108034;28;19920;-75
2022/05/19 16:31:30;;;;;;;;;;;;;;;;;;5110060;28;20003;-75
2022/05/19 16:33:57;;;;;;;;;;;;;;;;;;5108027;28;19919;-75
2022/05/19 16:36:23;;;;;;;;;;;;;;;;;;5113601;28;19920;-75
2022/05/19 16:38:49;;;;;;;;;;;;;;;;;;5108622;28;19935;-75
2022/05/19 16:41:16;;;;;;;;;;;;;;;;;;5109168;28;20299;-75
2022/05/19 16:43:44;;;;;;;;;;;;;;;;;;5100593;28;20014;-75
2022/05/19 16:46:10;;;;;;;;;;;;;;;;;;5107026;28;20375;-75
2022/05/19 16:48:36;;;;;;;;;;;;;;;;;;5117515;28;19930;-75
2022/05/19 16:51:02;;;;;;;;;;;;;;;;;;5107590;28;19927;-75
2022/05/19 16:53:28;;;;;;;;;;;;;;;;;;5118544;28;19927;-75
2022/05/19 16:58:39;;;;;;;;;;;;;;;;;;5108499;28;19920;-75
2022/05/19 17:01:05;;;;;;;;;;;;;;;;;;5104795;28;19987;-75
2022/05/19 17:03:31;;;;;;;;;;;;;;;;;;5127088;27;19927;-75
2022/05/19 17:05:58;;;;;;;;;;;;;;;;;;5109212;28;19947;-75
2022/05/19 17:08:30;;;;;;;;;;;;;;;;;;5107359;28;19924;-75